createdAt,value
2019-01-02T00:02:22.828Z,99952.43
2019-01-02T00:04:53.890Z,99953.66
2019-01-02T00:07:29.718Z,99957.80
2019-01-02T00:09:59.331Z,99952.75
2019-01-02T00:12:28.895Z,99954.97
2019-01-02T00:14:58.555Z,99958.02
2019-01-02T00:17:28.215Z,99954.87
2019-01-02T00:19:58.182Z,99953.68
2019-01-02T00:22:27.740Z,99965.67
2019-01-02T00:24:57.721Z,99961.69
2019-01-02T00:27:27.305Z,99954.85
2019-01-02T00:29:57.265Z,99957.70
2019-01-02T00:32:26.939Z,99963.28
2019-01-02T00:34:56.785Z,99957.95
2019-01-02T00:37:26.381Z,99962.20
2019-01-02T00:39:55.940Z,99961.99
2019-01-02T00:42:25.813Z,99968.44
2019-01-02T00:44:55.373Z,99970.86
2019-01-02T00:47:25.240Z,99963.52
2019-01-02T00:49:55.094Z,99962.57
2019-01-02T00:52:25.027Z,99963.54
2019-01-02T00:54:54.653Z,99962.73
2019-01-02T00:57:24.503Z,99954.13
2019-01-02T00:59:54.090Z,99963.55
2019-01-02T01:02:24.166Z,99966.30
2019-01-02T01:04:53.727Z,99969.47
2019-01-02T01:07:23.690Z,99969.47
2019-01-02T01:09:53.293Z,99967.70
2019-01-02T01:12:23.143Z,99959.92
2019-01-02T01:14:52.717Z,99955.56
2019-01-02T01:17:22.681Z,99951.56
2019-01-02T01:19:52.282Z,99958.66
2019-01-02T01:22:22.204Z,99968.27
2019-01-02T01:24:51.821Z,99963.53
2019-01-02T01:27:21.447Z,99966.83
2019-01-02T01:29:51.023Z,99961.06
2019-01-02T01:32:20.630Z,99963.02
2019-01-02T01:34:50.660Z,99967.14
2019-01-02T01:37:20.292Z,99973.64
2019-01-02T01:40:11.616Z,99981.73
2019-01-02T01:42:41.196Z,99985.48
2019-01-02T01:45:11.923Z,100006.14
2019-01-02T01:47:41.512Z,100009.94
2019-01-02T01:50:11.445Z,100021.67
2019-01-02T01:52:41.021Z,100021.64
2019-01-02T01:55:10.638Z,100011.98
2019-01-02T01:57:40.562Z,100032.95
2019-01-02T02:00:14.309Z,100033.31
2019-01-02T02:02:43.907Z,100038.36
2019-01-02T02:05:13.487Z,100037.48
2019-01-02T02:07:43.147Z,100044.48
2019-01-02T02:10:16.113Z,100048.53
2019-01-02T02:12:45.788Z,100049.48
2019-01-02T02:15:15.383Z,100056.00
2019-01-02T02:17:45.516Z,100053.72
2019-01-02T02:20:15.542Z,100058.19
2019-01-02T02:22:45.110Z,100042.62
2019-01-02T02:25:17.750Z,100047.60
2019-01-02T02:27:47.560Z,100043.61
2019-01-02T02:30:17.589Z,100038.75
2019-01-02T02:33:06.476Z,100039.00
2019-01-02T02:35:36.063Z,100032.30
2019-01-02T02:38:05.992Z,100028.80
2019-01-02T02:40:35.582Z,100034.19
2019-01-02T02:43:11.090Z,100037.39
2019-01-02T02:45:40.722Z,100034.46
2019-01-02T02:48:10.739Z,100023.45
2019-01-02T02:50:40.789Z,100025.89
2019-01-02T02:53:29.999Z,100031.27
2019-01-02T02:55:59.863Z,100045.34
2019-01-02T02:58:29.957Z,100038.72
2019-01-02T03:00:59.893Z,100029.00
2019-01-02T03:03:29.785Z,100029.15
2019-01-02T03:05:59.369Z,100030.70
2019-01-02T03:08:28.941Z,100030.84
2019-01-02T03:10:58.880Z,100029.81
2019-01-02T03:13:28.874Z,100037.66
2019-01-02T03:15:59.278Z,100029.83
2019-01-02T03:18:29.210Z,100024.10
2019-01-02T03:20:59.187Z,100023.72
2019-01-02T03:23:28.771Z,100038.45
2019-01-02T03:25:58.341Z,100031.64
2019-01-02T03:28:28.706Z,100031.50
2019-01-02T03:30:58.570Z,100023.31
2019-01-02T03:33:28.435Z,100030.18
2019-01-02T03:35:58.033Z,100030.55
2019-01-02T03:38:27.670Z,100032.81
2019-01-02T03:40:57.275Z,100045.11
2019-01-02T03:43:26.856Z,100038.48
2019-01-02T03:45:56.436Z,100039.66
2019-01-02T03:48:26.435Z,100042.47
2019-01-02T03:50:56.165Z,100046.85
2019-01-02T03:53:25.858Z,100050.67
2019-01-02T03:55:55.409Z,100049.47
2019-01-02T03:58:25.019Z,100049.45
2019-01-02T04:00:54.597Z,100054.86
2019-01-02T04:03:24.185Z,100053.82
2019-01-02T04:05:53.777Z,100044.92
2019-01-02T04:08:27.127Z,99984.64
2019-01-02T04:10:56.710Z,100033.73
2019-01-02T04:13:26.301Z,100039.34
2019-01-02T04:15:55.940Z,100043.42
2019-01-02T04:18:25.514Z,100033.79
2019-01-02T04:20:55.105Z,100036.45
2019-01-02T04:23:25.241Z,100043.82
2019-01-02T04:25:54.813Z,100042.61
2019-01-02T04:28:24.424Z,100042.47
2019-01-02T04:30:54.043Z,100043.67
2019-01-02T04:33:42.888Z,100046.77
2019-01-02T04:36:12.497Z,100047.69
2019-01-02T04:38:42.057Z,100046.72
2019-01-02T04:41:11.619Z,100046.55
2019-01-02T04:43:44.184Z,99991.91
2019-01-02T04:46:13.795Z,100047.63
2019-01-02T04:48:43.353Z,100045.95
2019-01-02T04:51:12.965Z,100058.97
2019-01-02T04:53:42.520Z,100054.09
2019-01-02T04:56:31.760Z,100067.20
2019-01-02T04:59:01.326Z,100065.91
2019-01-02T05:01:30.922Z,100070.87
2019-01-02T05:04:20.058Z,100073.54
2019-01-02T05:06:49.633Z,100077.83
2019-01-02T05:09:19.214Z,100081.66
2019-01-02T05:11:48.841Z,100082.22
2019-01-02T05:14:18.418Z,100081.01
2019-01-02T05:16:47.999Z,100080.52
2019-01-02T05:19:17.609Z,100078.52
2019-01-02T05:21:47.181Z,100089.43
2019-01-02T05:24:16.841Z,100085.98
2019-01-02T05:26:46.537Z,100091.95
2019-01-02T05:29:35.381Z,100041.91
2019-01-02T05:32:05.022Z,100096.12
2019-01-02T05:34:34.607Z,100097.31
2019-01-02T05:37:04.146Z,100093.12
2019-01-02T05:39:33.726Z,100093.67
2019-01-02T05:42:03.325Z,100089.80
2019-01-02T05:44:32.902Z,100081.59
2019-01-02T05:47:02.572Z,100084.45
2019-01-02T05:49:32.164Z,100082.50
2019-01-02T05:52:01.759Z,100084.16
2019-01-02T05:54:31.369Z,100094.17
2019-01-02T05:57:00.983Z,100088.52
2019-01-02T05:59:30.583Z,100088.70
2019-01-02T06:02:00.201Z,100093.23
2019-01-02T06:04:29.754Z,100086.67
2019-01-02T06:06:59.327Z,100087.58
2019-01-02T06:09:29.004Z,100086.80
2019-01-02T06:11:59.015Z,100087.89
2019-01-02T06:14:28.603Z,100089.42
2019-01-02T06:16:58.316Z,100087.94
2019-01-02T06:19:27.919Z,100086.66
2019-01-02T06:21:57.558Z,100100.39
2019-01-02T06:24:28.034Z,100098.79
2019-01-02T06:26:57.615Z,100100.16
2019-01-02T06:29:27.172Z,100102.50
2019-01-02T06:31:56.829Z,100096.30
2019-01-02T06:34:26.395Z,100098.95
2019-01-02T06:36:56.015Z,100104.17
2019-01-02T06:39:25.589Z,100106.50
2019-01-02T09:01:38.086Z,100180.09
2019-01-02T09:04:12.114Z,100186.16
2019-01-02T09:09:25.647Z,100193.24
2019-01-02T09:12:01.494Z,100204.43
2019-01-02T09:14:35.801Z,100205.36
2019-01-02T09:17:09.847Z,100214.08
2019-01-02T09:19:44.113Z,100217.55
2019-01-02T09:22:18.151Z,100211.45
2019-01-02T09:24:52.185Z,100201.78
2019-01-02T09:30:03.094Z,100200.50
2019-01-02T09:32:37.513Z,100192.52
2019-01-02T09:35:11.953Z,100196.06
2019-01-02T09:37:46.707Z,100201.67
2019-01-02T09:40:21.110Z,100209.52
2019-01-02T09:42:55.149Z,100194.67
2019-01-02T09:45:47.000Z,100187.17
2019-01-02T09:48:21.453Z,100182.27
2019-01-02T09:50:55.506Z,100177.33
2019-01-02T09:56:10.626Z,100180.94
2019-01-02T09:58:44.684Z,100190.70
2019-01-02T10:01:18.741Z,100187.36
2019-01-02T10:04:03.094Z,100200.22
2019-01-02T10:06:37.154Z,100199.59
2019-01-02T10:09:11.189Z,100194.64
2019-01-02T10:11:45.506Z,100197.16
2019-01-02T10:14:19.519Z,100203.59
2019-01-02T10:16:53.592Z,100206.03
2019-01-02T10:19:27.612Z,100200.93
2019-01-02T10:24:40.839Z,100194.70
2019-01-02T10:27:32.692Z,100208.27
2019-01-02T10:30:06.952Z,100203.97
2019-01-02T10:32:40.994Z,100206.73
2019-01-02T10:35:15.060Z,100210.79
2019-01-02T10:37:49.119Z,100205.43
2019-01-02T10:40:23.486Z,100216.31
2019-01-02T10:42:57.877Z,100212.53
2019-01-02T10:45:31.966Z,100218.73
2019-01-02T10:48:06.025Z,100219.44
2019-01-02T10:50:58.237Z,100225.05
2019-01-02T10:53:32.297Z,100234.80
2019-01-02T10:56:06.697Z,100225.98
2019-01-02T10:58:43.827Z,100226.02
2019-01-02T11:01:18.017Z,100225.66
2019-01-02T11:03:52.072Z,100217.73
2019-01-02T11:06:28.665Z,100221.83
2019-01-02T11:09:05.330Z,100229.48
2019-01-02T11:11:39.381Z,100219.02
2019-01-02T11:14:13.512Z,100213.79
2019-01-02T11:16:47.549Z,100218.78
2019-01-02T11:22:20.838Z,100190.44
2019-01-02T11:24:54.854Z,100181.89
2019-01-02T11:27:29.269Z,100191.97
2019-01-02T11:30:03.380Z,100185.28
2019-01-02T11:32:37.431Z,100187.98
2019-01-02T11:35:11.507Z,100188.13
2019-01-02T11:38:03.349Z,100186.56
2019-01-02T11:40:37.383Z,100188.44
2019-01-02T11:43:11.436Z,100180.77
2019-01-02T11:45:41.014Z,100177.42
2019-01-02T11:48:10.621Z,100181.67
2019-01-02T11:50:40.172Z,100178.16
2019-01-02T11:53:29.050Z,100174.28
2019-01-02T11:55:58.663Z,100162.17
2019-01-02T11:58:28.215Z,100163.64
2019-01-02T12:00:57.816Z,100150.32
2019-01-02T12:03:27.400Z,100151.84
2019-01-02T12:05:56.968Z,100134.61
2019-01-02T12:08:26.561Z,100144.17
2019-01-02T12:10:56.187Z,100147.65
2019-01-02T12:13:25.753Z,100144.83
2019-01-02T12:15:55.410Z,100160.84
2019-01-02T12:18:25.014Z,100160.03
2019-01-02T12:20:54.617Z,100155.49
2019-01-02T12:23:24.176Z,100158.53
2019-01-02T12:25:55.246Z,100166.47
2019-01-02T12:28:24.829Z,100165.06
2019-01-02T12:30:54.423Z,100168.74
2019-01-02T12:33:24.009Z,100167.98
2019-01-02T12:35:53.569Z,100155.44
2019-01-02T12:38:42.554Z,100102.79
2019-01-02T12:41:12.172Z,100162.47
2019-01-02T12:43:42.706Z,100167.38
2019-01-02T12:46:12.377Z,100161.00
2019-01-02T12:48:41.932Z,100159.52
2019-01-02T12:51:11.598Z,100159.92
2019-01-02T12:53:43.792Z,100158.06
2019-01-02T12:56:12.598Z,100164.70
2019-01-02T12:58:42.157Z,100168.50
2019-01-02T13:01:15.216Z,100168.80
2019-01-02T13:03:49.615Z,100166.95
2019-01-02T13:06:23.663Z,100164.88
2019-01-02T13:08:57.715Z,100164.34
2019-01-02T13:11:31.778Z,100168.52
2019-01-02T13:14:05.829Z,100170.56
2019-01-02T13:16:39.905Z,100171.95
2019-01-02T13:19:13.953Z,100167.37
2019-01-02T13:21:48.011Z,100170.88
2019-01-02T13:24:22.062Z,100176.40
2019-01-02T13:27:14.178Z,100130.12
2019-01-02T13:29:48.222Z,100185.52
2019-01-02T13:32:22.327Z,100191.29
2019-01-02T13:34:56.362Z,100185.81
2019-01-02T13:37:30.424Z,100194.13
2019-01-02T13:40:04.470Z,100202.59
2019-01-02T13:42:38.510Z,100199.98
2019-01-02T13:45:12.579Z,100196.52
2019-01-02T13:53:02.440Z,100205.18
2019-01-02T13:55:32.033Z,100212.80
2019-01-02T13:58:01.608Z,100220.88
2019-01-02T14:00:31.194Z,100219.75
2019-01-02T14:03:00.802Z,100231.70
2019-01-02T14:05:33.703Z,100229.06
2019-01-02T14:08:03.332Z,100235.44
2019-01-02T14:10:32.899Z,100232.94
2019-01-02T14:13:02.529Z,100229.70
2019-01-02T14:15:32.136Z,100229.72
2019-01-02T14:18:01.744Z,100240.97
2019-01-02T14:20:31.351Z,100238.86
2019-01-02T14:23:00.908Z,100239.95
2019-01-02T14:25:30.469Z,100243.47
2019-01-02T14:28:00.378Z,100249.91
2019-01-02T14:30:30.058Z,100247.04
2019-01-02T14:32:59.681Z,100257.08
2019-01-02T14:35:30.839Z,100266.09
2019-01-02T14:38:00.428Z,100263.42
2019-01-02T14:40:31.483Z,100266.45
2019-01-02T14:43:01.100Z,100274.10
2019-01-02T14:45:30.697Z,100274.13
2019-01-02T14:48:00.275Z,100271.56
2019-01-02T14:50:29.895Z,100278.19
2019-01-02T14:52:59.490Z,100277.63
2019-01-02T14:55:30.566Z,100281.17
2019-01-02T14:58:00.141Z,100280.94
2019-01-02T15:00:29.783Z,100281.98
2019-01-02T15:02:59.353Z,100284.70
2019-01-02T15:05:29.009Z,100281.73
2019-01-02T15:07:58.602Z,100284.73
2019-01-02T15:10:28.182Z,100278.52
2019-01-02T15:12:57.748Z,100276.38
2019-01-02T15:15:27.445Z,100280.05
2019-01-02T15:17:56.999Z,100279.27
2019-01-02T15:20:26.640Z,100276.78
2019-01-02T15:22:56.554Z,100272.72
2019-01-02T15:25:26.169Z,100273.34
2019-01-02T15:27:57.220Z,100279.89
2019-01-02T15:30:26.814Z,100286.52
2019-01-02T15:32:56.382Z,100289.05
2019-01-02T15:35:25.982Z,100288.13
2019-01-02T15:37:55.962Z,100294.14
2019-01-02T15:40:25.531Z,100297.03
2019-01-02T15:42:55.105Z,100300.80
2019-01-02T15:45:24.676Z,100309.40
2019-01-02T15:47:54.286Z,100307.55
2019-01-02T15:50:23.875Z,100307.37
2019-01-02T15:52:53.657Z,100313.66
2019-01-02T15:55:23.271Z,100317.55
2019-01-02T15:57:52.829Z,100323.73
2019-01-02T16:00:22.477Z,100333.00
2019-01-02T16:02:52.095Z,100340.55
2019-01-02T16:05:21.683Z,100340.41
2019-01-02T16:07:51.259Z,100347.72
2019-01-02T16:10:20.816Z,100345.50
2019-01-02T16:12:50.449Z,100356.23
2019-01-02T16:15:19.930Z,100354.12
2019-01-02T16:17:49.492Z,100355.98
2019-01-02T16:20:19.070Z,100355.77
2019-01-02T16:22:48.810Z,100359.72
2019-01-02T16:25:18.380Z,100368.34
2019-01-02T16:27:47.947Z,100365.56
2019-01-02T16:30:17.602Z,100364.02
2019-01-02T16:32:47.200Z,100360.18
2019-01-02T16:35:16.783Z,100368.66
2019-01-02T16:37:46.391Z,100371.87
2019-01-02T16:40:16.019Z,100377.78
2019-01-02T16:42:45.605Z,100385.72
2019-01-02T16:45:15.253Z,100387.52
2019-01-02T16:47:44.862Z,100391.38
2019-01-02T16:50:14.404Z,100395.31
2019-01-02T16:52:44.075Z,100397.61
2019-01-02T16:55:13.684Z,100399.52
2019-01-02T16:57:55.844Z,100400.16
2019-01-02T17:00:25.422Z,100403.70
2019-01-02T17:02:54.977Z,100407.66
2019-01-02T17:05:24.584Z,100404.34
2019-01-02T17:07:54.156Z,100404.44
2019-01-02T17:10:23.760Z,100404.56
2019-01-02T17:12:53.367Z,100409.62
2019-01-02T17:15:22.931Z,100408.55
2019-01-02T17:17:52.519Z,100418.74
2019-01-02T17:20:22.132Z,100416.77
2019-01-02T17:22:51.739Z,100425.61
2019-01-02T17:25:21.322Z,100427.74
2019-01-02T17:27:50.953Z,100425.88
2019-01-02T17:30:21.580Z,100432.84
2019-01-02T17:32:51.499Z,100434.48
2019-01-02T17:35:21.107Z,100427.42
2019-01-02T17:37:50.666Z,100431.64
2019-01-02T17:40:20.240Z,100434.73
2019-01-02T17:42:49.887Z,100435.91
2019-01-02T17:45:19.440Z,100434.49
2019-01-02T17:47:49.042Z,100435.86
2019-01-02T17:50:18.615Z,100439.98
2019-01-02T17:52:48.177Z,100444.88
2019-01-02T17:55:17.740Z,100447.31
2019-01-02T17:57:47.320Z,100448.70
2019-01-02T18:00:16.923Z,100449.64
2019-01-02T18:02:46.487Z,100453.21
2019-01-02T18:05:16.068Z,100456.22
2019-01-02T18:07:45.669Z,100452.42
2019-01-02T18:10:15.797Z,100457.59
2019-01-02T18:12:45.429Z,100461.00
2019-01-02T18:15:15.007Z,100464.45
2019-01-02T18:17:44.596Z,100461.38
2019-01-02T18:20:14.199Z,100467.64
2019-01-02T18:22:43.778Z,100464.95
2019-01-02T18:25:13.353Z,100466.55
2019-01-02T18:27:42.966Z,100460.13
2019-01-02T18:30:13.193Z,100462.88
2019-01-02T18:32:42.794Z,100465.45
2019-01-02T18:35:13.503Z,100465.38
2019-01-02T18:37:43.094Z,100469.49
2019-01-02T18:40:12.761Z,100472.08
2019-01-02T18:42:42.346Z,100472.38
2019-01-02T18:45:11.931Z,100468.28
2019-01-02T18:47:41.521Z,100474.53
2019-01-02T18:50:11.387Z,100473.31
2019-01-02T18:52:40.962Z,100473.49
2019-01-02T18:55:10.604Z,100473.78
2019-01-02T18:57:40.215Z,100478.11
2019-01-02T19:00:29.066Z,100476.81
2019-01-02T19:02:58.776Z,100486.94
2019-01-02T19:05:47.623Z,100491.55
2019-01-02T19:08:17.212Z,100488.78
2019-01-02T19:10:46.779Z,100491.38
2019-01-02T19:13:16.354Z,100497.75
2019-01-02T19:15:45.931Z,100499.28
2019-01-02T19:18:15.536Z,100503.77
2019-01-02T19:20:45.123Z,100513.98
2019-01-02T19:23:14.777Z,100513.35
2019-01-02T19:25:44.360Z,100511.91
2019-01-02T19:28:13.947Z,100519.17
2019-01-02T19:30:43.613Z,100514.13
2019-01-02T19:33:13.286Z,100517.35
2019-01-02T19:35:42.871Z,100515.61
2019-01-02T19:38:13.134Z,100521.38
2019-01-02T19:40:42.726Z,100521.63
2019-01-02T19:43:12.317Z,100526.79
2019-01-02T19:45:41.908Z,100530.62
2019-01-02T19:48:11.493Z,100528.37
2019-01-02T19:50:41.088Z,100533.25
2019-01-02T19:53:10.711Z,100538.98
2019-01-02T19:55:40.266Z,100543.77
2019-01-02T19:58:09.910Z,100545.35
2019-01-02T20:00:39.532Z,100550.53
2019-01-02T20:03:09.125Z,100546.55
2019-01-02T20:05:38.684Z,100548.72
2019-01-02T20:08:08.302Z,100539.24
2019-01-02T20:10:37.889Z,100543.03
2019-01-02T20:13:07.476Z,100540.04
2019-01-02T20:15:37.088Z,100544.02
2019-01-02T20:18:06.658Z,100542.13
2019-01-02T20:20:36.259Z,100546.80
2019-01-02T20:23:05.947Z,100552.23
2019-01-02T20:25:35.516Z,100552.14
2019-01-02T20:28:05.116Z,100554.15
2019-01-02T20:30:34.695Z,100557.70
2019-01-02T20:33:06.935Z,100508.37
2019-01-02T20:35:36.526Z,100561.41
2019-01-02T20:38:06.359Z,100553.66
2019-01-02T20:40:35.962Z,100554.29
2019-01-02T20:43:05.533Z,100555.41
2019-01-02T20:45:35.175Z,100553.02
2019-01-02T20:48:04.769Z,100551.59
2019-01-02T20:50:34.336Z,100551.52
2019-01-02T20:53:03.945Z,100551.23
2019-01-02T20:55:33.543Z,100547.71
2019-01-02T20:58:09.055Z,100545.22
2019-01-02T21:00:38.665Z,100544.29
2019-01-02T21:03:08.249Z,100541.13
2019-01-02T21:05:37.862Z,100541.97
2019-01-02T21:08:07.890Z,100549.51
2019-01-02T21:10:37.480Z,100543.09
2019-01-02T21:13:07.073Z,100545.09
2019-01-02T21:15:36.671Z,100547.00
2019-01-02T21:18:06.273Z,100546.44
2019-01-02T21:20:35.830Z,100544.70
2019-01-02T21:23:05.455Z,100544.33
2019-01-02T21:25:35.043Z,100543.83
2019-01-02T21:28:04.607Z,100544.40
2019-01-02T21:30:34.765Z,100546.80
2019-01-02T21:33:04.372Z,100551.52
2019-01-02T21:35:33.944Z,100548.84
2019-01-02T21:38:03.587Z,100547.78
2019-01-02T21:40:33.629Z,100552.24
2019-01-02T21:43:03.213Z,100549.59
2019-01-02T21:45:32.845Z,100551.53
2019-01-02T21:48:02.420Z,100553.37
2019-01-02T21:50:32.002Z,100557.23
2019-01-02T21:53:01.957Z,100547.47
2019-01-02T21:55:31.555Z,100551.52
2019-01-02T21:58:01.988Z,100547.62
2019-01-02T22:00:51.029Z,100550.97
2019-01-02T22:03:20.636Z,100552.34
2019-01-02T22:05:50.304Z,100549.39
2019-01-02T22:08:19.900Z,100551.16
2019-01-02T22:10:49.499Z,100557.08
2019-01-02T22:13:19.086Z,100557.95
2019-01-02T22:15:48.730Z,100559.56
2019-01-02T22:18:18.322Z,100564.12
2019-01-02T22:20:47.929Z,100562.73
2019-01-02T22:23:17.536Z,100563.05
2019-01-02T22:25:47.146Z,100569.53
2019-01-02T22:28:16.719Z,100565.96
2019-01-02T22:30:46.359Z,100565.63
2019-01-02T22:33:16.068Z,100572.77
2019-01-02T22:35:45.741Z,100570.97
2019-01-02T22:38:15.373Z,100575.05
2019-01-02T22:40:46.239Z,100572.09
2019-01-02T22:43:28.251Z,100576.30
2019-01-02T22:45:57.848Z,100583.72
2019-01-02T22:48:27.417Z,100584.34
2019-01-02T22:50:57.058Z,100588.09
2019-01-02T22:53:26.645Z,100591.61
2019-01-02T22:55:56.257Z,100591.21
2019-01-02T22:58:25.883Z,100589.86
2019-01-02T23:00:57.214Z,100597.30
2019-01-02T23:03:28.368Z,100601.77
2019-01-02T23:05:59.604Z,100605.69
2019-01-02T23:08:30.754Z,100601.85
2019-01-02T23:11:02.006Z,100606.42
2019-01-02T23:13:33.541Z,100610.31
2019-01-02T23:16:04.714Z,100614.24
2019-01-02T23:18:35.912Z,100617.59
2019-01-02T23:21:07.298Z,100619.91
2019-01-02T23:23:41.413Z,100619.20
2019-01-02T23:28:59.351Z,100629.19
2019-01-02T23:31:30.518Z,100629.91
2019-01-02T23:34:01.673Z,100632.13
2019-01-02T23:36:32.886Z,100636.50
2019-01-02T23:39:04.415Z,100643.78
2019-01-02T23:41:35.598Z,100651.79
2019-01-02T23:44:07.026Z,100646.20
2019-01-02T23:46:38.181Z,100650.70
2019-01-02T23:49:09.365Z,100649.23
2019-01-02T23:51:40.562Z,100658.21
2019-01-02T23:54:11.711Z,100657.48
2019-01-02T23:57:02.218Z,100654.34
2019-01-02T23:59:33.408Z,100658.48
